createdAt,value
2023-04-24T00:01:04.625Z,95536.03
2023-04-24T00:03:35.714Z,95530.59
2023-04-24T00:06:04.585Z,95528.69
2023-04-24T00:08:32.935Z,95519.16
2023-04-24T00:11:02.346Z,95513.19
2023-04-24T00:13:30.755Z,95515.91
2023-04-24T00:15:59.981Z,95515.91
2023-04-24T00:18:28.413Z,95519.44
2023-04-24T00:20:58.994Z,95514.81
2023-04-24T00:23:27.385Z,95512.59
2023-04-24T00:25:55.763Z,95520.47
2023-04-24T00:28:24.701Z,95524.00
2023-04-24T00:30:53.144Z,95516.94
2023-04-24T00:33:22.120Z,95523.78
2023-04-24T00:35:50.907Z,95523.78
2023-04-24T00:38:20.622Z,95519.13
2023-04-24T00:40:51.296Z,95519.72
2023-04-24T00:43:19.729Z,95512.63
2023-04-24T00:45:48.724Z,95512.66
2023-04-24T00:48:17.511Z,95515.91
2023-04-24T00:50:48.106Z,95512.69
2023-04-24T00:53:16.510Z,95506.75
2023-04-24T00:55:47.332Z,95507.03
2023-04-24T00:58:15.765Z,95515.19
2023-04-24T01:00:46.512Z,95505.91
2023-04-24T01:03:15.920Z,95505.63
2023-04-24T01:05:44.636Z,95506.75
2023-04-24T01:08:13.779Z,95509.47
2023-04-24T01:10:43.356Z,95508.38
2023-04-24T01:13:15.170Z,95513.50
2023-04-24T01:15:46.987Z,95513.25
2023-04-24T01:18:16.908Z,95508.34
2023-04-24T01:20:47.875Z,95508.13
2023-04-24T01:23:18.117Z,95520.38
2023-04-24T01:25:47.073Z,95514.97
2023-04-24T01:28:16.109Z,95517.94
2023-04-24T01:30:47.783Z,95516.34
2023-04-24T01:33:16.446Z,95522.31
2023-04-24T01:35:45.956Z,95503.59
2023-04-24T01:38:14.376Z,95499.53
2023-04-24T01:40:44.530Z,95497.34
2023-04-24T01:43:13.870Z,95498.16
2023-04-24T01:45:44.021Z,95504.13
2023-04-24T01:48:13.448Z,95505.22
2023-04-24T01:50:43.098Z,95498.72
2023-04-24T01:53:14.357Z,95497.06
2023-04-24T01:55:44.182Z,95501.94
2023-04-24T01:58:16.174Z,95495.44
2023-04-24T02:00:44.576Z,95494.59
2023-04-24T02:03:13.534Z,95497.59
2023-04-24T02:05:43.557Z,95491.34
2023-04-24T02:08:11.906Z,95476.94
2023-04-24T02:10:41.405Z,95487.00
2023-04-24T02:13:11.136Z,95487.53
2023-04-24T02:15:40.007Z,95483.44
2023-04-24T02:18:08.384Z,95485.63
2023-04-24T02:20:37.654Z,95477.75
2023-04-24T02:23:06.066Z,95473.94
2023-04-24T02:25:36.665Z,95472.31
2023-04-24T02:28:05.050Z,95479.13
2023-04-24T02:30:37.813Z,95474.81
2023-04-24T02:33:06.295Z,95470.69
2023-04-24T02:35:35.997Z,95468.81
2023-04-24T02:38:04.554Z,95469.38
2023-04-24T02:40:33.160Z,95468.28
2023-04-24T02:43:01.569Z,95466.09
2023-04-24T02:45:31.609Z,95467.50
2023-04-24T02:48:01.760Z,95464.28
2023-04-24T02:50:30.351Z,95465.66
2023-04-24T02:52:58.744Z,95464.28
2023-04-24T02:55:27.160Z,95461.59
2023-04-24T02:57:56.413Z,95470.28
2023-04-24T03:00:25.119Z,95473.81
2023-04-24T03:02:54.914Z,95477.63
2023-04-24T03:05:26.137Z,95473.84
2023-04-24T03:07:54.619Z,95469.47
2023-04-24T03:10:24.796Z,95471.94
2023-04-24T03:12:53.192Z,95467.06
2023-04-24T03:15:23.099Z,95467.88
2023-04-24T03:17:51.970Z,95465.16
2023-04-24T03:20:20.956Z,95469.78
2023-04-24T03:22:51.128Z,95459.47
2023-04-24T03:25:21.056Z,95453.78
2023-04-24T03:27:49.414Z,95460.53
2023-04-24T03:30:30.304Z,95456.22
2023-04-24T03:33:01.995Z,95457.03
2023-04-24T03:35:34.119Z,95460.56
2023-04-24T03:38:06.672Z,95457.31
2023-04-24T03:40:44.773Z,95466.25
2023-04-24T03:43:36.621Z,95461.94
2023-04-24T03:46:07.528Z,95473.31
2023-04-24T03:48:40.796Z,95476.31
2023-04-24T03:51:10.823Z,95474.13
2023-04-24T03:53:45.063Z,95482.56
2023-04-24T03:56:16.465Z,95474.13
2023-04-24T03:58:45.855Z,95481.75
2023-04-24T04:01:16.933Z,95477.41
2023-04-24T04:03:45.940Z,95484.72
2023-04-24T04:06:16.336Z,95489.63
2023-04-24T04:08:46.156Z,95487.97
2023-04-24T04:11:15.708Z,95486.63
2023-04-24T04:13:44.131Z,95486.34
2023-04-24T04:16:14.917Z,95493.13
2023-04-24T04:18:43.385Z,95490.41
2023-04-24T04:21:13.043Z,95497.22
2023-04-24T04:23:42.613Z,95498.84
2023-04-24T04:26:27.020Z,95488.78
2023-04-24T04:29:18.484Z,95500.16
2023-04-24T04:31:50.004Z,95496.09
2023-04-24T04:34:18.472Z,95501.81
2023-04-24T04:36:48.604Z,95492.84
2023-04-24T04:39:33.604Z,95500.97
2023-04-24T04:42:07.734Z,95498.28
2023-04-24T04:44:42.713Z,95498.81
2023-04-24T04:47:17.749Z,95499.38
2023-04-24T04:49:47.117Z,95494.19
2023-04-24T04:52:21.814Z,95494.75
2023-04-24T04:54:54.869Z,95483.63
2023-04-24T04:57:27.419Z,95498.56
2023-04-24T04:59:56.288Z,95504.50
2023-04-24T05:02:38.544Z,95500.97
2023-04-24T05:05:08.550Z,95498.81
2023-04-24T05:07:37.363Z,95503.97
2023-04-24T05:10:08.232Z,95512.41
2023-04-24T05:12:38.220Z,95510.22
2023-04-24T05:15:07.638Z,95514.81
2023-04-24T05:17:37.146Z,95499.38
2023-04-24T05:20:07.950Z,95517.00
2023-04-24T05:22:37.244Z,95523.75
2023-04-24T05:25:06.738Z,95521.56
2023-04-24T05:27:45.583Z,95522.13
2023-04-24T05:30:17.365Z,95523.75
2023-04-24T05:32:46.053Z,95515.03
2023-04-24T05:35:15.917Z,95524.59
2023-04-24T05:37:44.381Z,95532.97
2023-04-24T05:40:14.935Z,95532.97
2023-04-24T05:42:45.854Z,95530.25
2023-04-24T05:45:17.643Z,95519.91
2023-04-24T05:47:46.360Z,95519.38
2023-04-24T05:50:16.457Z,95522.63
2023-04-24T05:52:45.350Z,95526.94
2023-04-24T05:55:26.082Z,95523.97
2023-04-24T05:57:56.962Z,95520.69
2023-04-24T06:00:27.807Z,95524.72
2023-04-24T06:03:05.281Z,95533.97
2023-04-24T06:05:34.163Z,95528.81
2023-04-24T06:08:04.914Z,95535.34
2023-04-24T06:10:38.286Z,95529.09
2023-04-24T06:13:09.822Z,95539.47
2023-04-24T06:15:42.185Z,95534.88
2023-04-24T06:18:18.726Z,95540.50
2023-04-24T06:20:47.265Z,95540.03
2023-04-24T06:23:15.666Z,95538.41
2023-04-24T06:25:44.450Z,95543.59
2023-04-24T06:28:15.389Z,95544.94
2023-04-24T06:30:44.417Z,95537.34
2023-04-24T06:35:48.239Z,95541.16
2023-04-24T06:38:17.030Z,95549.28
2023-04-24T06:40:45.949Z,95541.97
2023-04-24T06:43:15.970Z,95551.47
2023-04-24T06:45:45.558Z,95548.22
2023-04-24T06:48:14.584Z,95543.06
2023-04-24T06:50:43.003Z,95546.88
2023-04-24T06:53:13.991Z,95542.78
2023-04-24T06:55:44.151Z,95545.75
2023-04-24T06:58:13.685Z,95553.13
2023-04-24T07:00:43.903Z,95546.59
2023-04-24T07:03:12.364Z,95547.38
2023-04-24T07:05:41.253Z,95546.56
2023-04-24T07:08:09.694Z,95541.41
2023-04-24T07:10:38.885Z,95551.16
2023-04-24T07:13:08.011Z,95558.22
2023-04-24T07:15:36.862Z,95551.44
2023-04-24T07:18:07.069Z,95550.88
2023-04-24T07:20:35.636Z,95560.94
2023-04-24T07:23:04.613Z,95557.13
2023-04-24T07:25:33.460Z,95556.56
2023-04-24T07:28:01.875Z,95556.28
2023-04-24T07:30:31.521Z,95548.66
2023-04-24T07:33:00.005Z,95557.09
2023-04-24T07:35:30.826Z,95562.53
2023-04-24T07:37:59.593Z,95561.16
2023-04-24T07:40:28.804Z,95553.00
2023-04-24T07:42:57.199Z,95568.16
2023-04-24T07:45:27.630Z,95557.28
2023-04-24T07:47:56.079Z,95560.53
2023-04-24T07:50:25.051Z,95545.88
2023-04-24T07:52:55.289Z,95569.53
2023-04-24T07:55:25.735Z,95570.88
2023-04-24T07:57:56.727Z,95570.38
2023-04-24T08:00:25.102Z,95573.41
2023-04-24T08:02:53.938Z,95570.69
2023-04-24T08:05:22.587Z,95584.81
2023-04-24T08:07:51.759Z,95579.94
2023-04-24T08:10:21.478Z,95594.34
2023-04-24T08:12:50.542Z,95592.72
2023-04-24T08:15:19.213Z,95590.84
2023-04-24T08:17:47.669Z,95589.47
2023-04-24T08:20:16.509Z,95590.53
2023-04-24T08:22:48.128Z,95591.09
2023-04-24T08:25:16.836Z,95584.00
2023-04-24T08:27:47.058Z,95593.78
2023-04-24T08:30:15.706Z,95585.34
2023-04-24T08:32:44.144Z,95596.97
2023-04-24T08:35:12.999Z,95579.47
2023-04-24T08:37:41.509Z,95578.69
2023-04-24T08:40:15.740Z,95589.03
2023-04-24T08:42:46.569Z,95585.84
2023-04-24T08:45:15.606Z,95607.84
2023-04-24T08:47:45.111Z,95619.00
2023-04-24T08:50:14.261Z,95638.06
2023-04-24T08:52:44.292Z,95646.22
2023-04-24T08:55:12.897Z,95657.34
2023-04-24T08:57:42.228Z,95664.09
2023-04-24T09:00:13.457Z,95675.19
2023-04-24T09:02:45.323Z,95661.34
2023-04-24T09:05:15.977Z,95652.94
2023-04-24T09:07:47.239Z,95653.75
2023-04-24T09:10:16.724Z,95662.47
2023-04-24T09:12:46.459Z,95598.63
2023-04-24T09:15:17.493Z,95649.47
2023-04-24T09:17:46.033Z,95647.56
2023-04-24T09:20:14.473Z,95643.22
2023-04-24T09:22:44.854Z,95644.31
2023-04-24T09:25:13.732Z,95631.28
2023-04-24T09:27:47.672Z,95634.78
2023-04-24T09:30:24.008Z,95647.53
2023-04-24T09:33:12.624Z,95650.25
2023-04-24T09:35:42.961Z,95653.81
2023-04-24T09:38:11.857Z,95654.09
2023-04-24T09:40:42.513Z,95639.41
2023-04-24T09:43:13.328Z,95653.53
2023-04-24T09:45:43.691Z,95654.59
2023-04-24T09:48:12.692Z,95646.72
2023-04-24T09:50:41.221Z,95654.34
2023-04-24T09:53:12.084Z,95651.91
2023-04-24T09:55:42.021Z,95664.16
2023-04-24T09:58:12.168Z,95658.75
2023-04-24T10:00:41.356Z,95647.88
2023-04-24T10:03:12.985Z,95654.63
2023-04-24T10:05:42.086Z,95651.66
2023-04-24T10:08:12.397Z,95661.44
2023-04-24T10:10:42.670Z,95649.75
2023-04-24T10:13:11.863Z,95664.41
2023-04-24T10:15:42.372Z,95678.81
2023-04-24T10:18:13.574Z,95664.94
2023-04-24T10:20:42.969Z,95672.00
2023-04-24T10:23:13.350Z,95668.94
2023-04-24T10:25:42.425Z,95680.03
2023-04-24T10:28:12.944Z,95668.06
2023-04-24T10:30:44.720Z,95678.06
2023-04-24T10:33:15.744Z,95662.28
2023-04-24T10:35:48.801Z,95676.09
2023-04-24T10:38:25.104Z,95675.47
2023-04-24T10:40:53.476Z,95669.22
2023-04-24T10:43:22.382Z,95685.53
2023-04-24T10:46:04.557Z,95668.38
2023-04-24T10:48:34.659Z,95653.13
2023-04-24T10:51:03.643Z,95658.97
2023-04-24T10:53:32.817Z,95649.88
2023-04-24T10:56:06.960Z,95655.47
2023-04-24T10:58:41.235Z,95657.00
2023-04-24T11:01:10.426Z,95662.19
2023-04-24T11:03:43.091Z,95652.63
2023-04-24T11:06:11.682Z,95655.31
2023-04-24T11:08:41.531Z,95657.00
2023-04-24T11:11:14.536Z,95663.00
2023-04-24T11:14:08.438Z,95665.16
2023-04-24T11:16:40.775Z,95659.97
2023-04-24T11:19:12.261Z,95652.41
2023-04-24T11:21:46.116Z,95654.72
2023-04-24T11:24:33.218Z,95653.31
2023-04-24T11:27:08.902Z,95654.47
2023-04-24T11:29:42.048Z,95668.38
2023-04-24T11:32:21.947Z,95685.34
2023-04-24T11:34:53.520Z,95692.84
2023-04-24T11:37:21.897Z,95692.13
2023-04-24T11:39:54.084Z,95709.56
2023-04-24T11:42:24.250Z,95705.75
2023-04-24T11:44:55.293Z,95692.97
2023-04-24T11:47:30.989Z,95699.75
2023-04-24T11:50:02.625Z,95710.09
2023-04-24T11:52:32.369Z,95710.34
2023-04-24T11:55:01.840Z,95711.75
2023-04-24T11:57:35.029Z,95709.84
2023-04-24T12:00:04.567Z,95689.19
2023-04-24T12:02:41.332Z,95691.03
2023-04-24T12:05:12.996Z,95694.81
2023-04-24T12:07:45.182Z,95688.72
2023-04-24T12:10:13.633Z,95690.31
2023-04-24T12:12:42.034Z,95704.34
2023-04-24T12:15:13.467Z,95693.97
2023-04-24T12:17:44.334Z,95690.28
2023-04-24T12:20:16.438Z,95701.47
2023-04-24T12:22:47.178Z,95694.69
2023-04-24T12:25:16.816Z,95700.38
2023-04-24T12:27:46.278Z,95693.50
2023-04-24T12:30:17.937Z,95691.59
2023-04-24T12:32:49.465Z,95690.38
2023-04-24T12:35:23.394Z,95699.94
2023-04-24T12:37:53.437Z,95691.50
2023-04-24T12:40:23.284Z,95683.13
2023-04-24T12:42:54.390Z,95684.19
2023-04-24T12:45:26.272Z,95670.81
2023-04-24T12:47:55.743Z,95674.31
2023-04-24T12:50:26.146Z,95666.88
2023-04-24T12:52:54.533Z,95667.19
2023-04-24T12:55:23.349Z,95672.50
2023-04-24T12:57:51.721Z,95667.13
2023-04-24T13:00:21.394Z,95666.88
2023-04-24T13:02:50.639Z,95672.03
2023-04-24T13:05:19.368Z,95674.97
2023-04-24T13:07:49.567Z,95670.47
2023-04-24T13:10:18.113Z,95668.59
2023-04-24T13:12:47.842Z,95665.72
2023-04-24T13:15:16.301Z,95678.28
2023-04-24T13:17:45.684Z,95664.00
2023-04-24T13:20:14.524Z,95692.78
2023-04-24T13:22:43.517Z,95679.47
2023-04-24T13:25:13.410Z,95678.56
2023-04-24T13:27:41.907Z,95671.31
2023-04-24T13:30:11.584Z,95681.00
2023-04-24T13:32:40.722Z,95665.03
2023-04-24T13:35:10.502Z,95685.50
2023-04-24T13:37:38.912Z,95673.56
2023-04-24T13:40:09.419Z,95675.03
2023-04-24T13:42:39.195Z,95671.84
2023-04-24T13:45:17.816Z,95674.66
2023-04-24T13:47:54.516Z,95679.41
2023-04-24T13:50:24.035Z,95684.91
2023-04-24T13:52:52.805Z,95683.63
2023-04-24T13:55:21.326Z,95688.13
2023-04-24T13:57:51.447Z,95676.91
2023-04-24T14:00:20.816Z,95683.38
2023-04-24T14:02:49.773Z,95694.56
2023-04-24T14:05:19.344Z,95686.91
2023-04-24T14:07:47.757Z,95666.59
2023-04-24T14:10:16.460Z,95673.63
2023-04-24T14:12:45.400Z,95685.59
2023-04-24T14:15:15.641Z,95698.03
2023-04-24T14:17:44.486Z,95699.44
2023-04-24T14:20:14.594Z,95692.03
2023-04-24T14:22:43.824Z,95695.19
2023-04-24T14:25:12.196Z,95691.72
2023-04-24T14:27:41.185Z,95688.69
2023-04-24T14:30:10.583Z,95699.44
2023-04-24T14:32:41.731Z,95697.00
2023-04-24T14:35:10.656Z,95698.75
2023-04-24T14:37:42.603Z,95702.06
2023-04-24T14:40:33.728Z,95704.34
2023-04-24T14:43:01.605Z,95700.81
2023-04-24T14:45:30.548Z,95703.53
2023-04-24T14:48:00.806Z,95706.53
2023-04-24T14:50:29.717Z,95706.94
2023-04-24T14:52:59.801Z,95703.34
2023-04-24T14:55:28.268Z,95680.94
2023-04-24T14:57:57.332Z,95717.38
2023-04-24T15:00:26.025Z,95713.22
2023-04-24T15:02:54.636Z,95719.75
2023-04-24T15:05:25.825Z,95712.66
2023-04-24T15:07:54.844Z,95711.06
2023-04-24T15:10:23.997Z,95715.22
2023-04-24T15:12:52.496Z,95724.16
2023-04-24T15:15:21.374Z,95723.72
2023-04-24T15:17:49.835Z,95722.25
2023-04-24T15:20:19.395Z,95720.66
2023-04-24T15:22:49.256Z,95709.19
2023-04-24T15:25:18.762Z,95719.59
2023-04-24T15:27:47.970Z,95717.13
2023-04-24T15:30:16.887Z,95729.56
2023-04-24T15:32:46.197Z,95742.59
2023-04-24T15:35:15.092Z,95736.31
2023-04-24T15:37:43.877Z,95724.56
2023-04-24T15:40:16.711Z,95747.84
2023-04-24T15:42:46.143Z,95742.34
2023-04-24T15:45:14.492Z,95746.41
2023-04-24T15:47:43.716Z,95736.81
2023-04-24T15:50:14.322Z,95745.81
2023-04-24T15:52:44.367Z,95753.41
2023-04-24T15:55:14.698Z,95748.28
2023-04-24T15:57:44.578Z,95747.16
2023-04-24T16:00:13.950Z,95768.59
2023-04-24T16:02:43.009Z,95767.72
2023-04-24T16:05:12.210Z,95755.56
2023-04-24T16:07:41.492Z,95757.41
2023-04-24T16:10:11.149Z,95757.72
2023-04-24T16:12:40.952Z,95752.53
2023-04-24T16:15:10.473Z,95758.81
2023-04-24T16:17:39.034Z,95763.88
2023-04-24T16:20:09.158Z,95776.44
2023-04-24T16:22:37.953Z,95767.56
2023-04-24T16:25:07.442Z,95764.09
2023-04-24T16:27:36.300Z,95771.03
2023-04-24T16:30:07.743Z,95763.41
2023-04-24T16:32:36.232Z,95770.00
2023-04-24T16:35:05.463Z,95766.25
2023-04-24T16:37:33.850Z,95769.03
2023-04-24T16:40:04.285Z,95772.69
2023-04-24T16:42:32.745Z,95774.09
2023-04-24T16:45:01.630Z,95759.16
2023-04-24T16:47:31.421Z,95774.50
2023-04-24T16:50:00.780Z,95769.13
2023-04-24T16:52:29.496Z,95769.69
2023-04-24T16:54:57.836Z,95768.63
2023-04-24T16:57:26.833Z,95776.22
2023-04-24T16:59:55.534Z,95767.84
2023-04-24T17:02:24.099Z,95773.56
2023-04-24T17:04:55.183Z,95774.59
2023-04-24T17:07:24.295Z,95778.44
2023-04-24T17:09:53.796Z,95764.31
2023-04-24T17:12:22.699Z,95771.13
2023-04-24T17:14:52.402Z,95777.38
2023-04-24T17:17:23.139Z,95776.34
2023-04-24T17:19:54.674Z,95777.44
2023-04-24T17:22:24.462Z,95786.44
2023-04-24T17:24:53.695Z,95804.13
2023-04-24T17:27:22.087Z,95772.34
2023-04-24T17:29:52.294Z,95806.84
2023-04-24T17:32:20.769Z,95800.84
2023-04-24T17:34:50.451Z,95809.59
2023-04-24T17:37:23.174Z,95810.94
2023-04-24T17:39:52.243Z,95819.66
2023-04-24T17:42:20.648Z,95817.19
2023-04-24T17:44:49.126Z,95829.44
2023-04-24T17:47:17.978Z,95826.44
2023-04-24T17:49:46.411Z,95841.66
2023-04-24T17:52:17.622Z,95837.88
2023-04-24T17:54:49.633Z,95840.03
2023-04-24T17:57:18.606Z,95831.88
2023-04-24T17:59:47.191Z,95830.25
2023-04-24T18:02:16.152Z,95827.25
2023-04-24T18:04:45.238Z,95829.16
2023-04-24T18:07:13.710Z,95837.84
2023-04-24T18:09:42.763Z,95829.97
2023-04-24T18:12:12.520Z,95831.88
2023-04-24T18:14:41.755Z,95837.59
2023-04-24T18:17:10.119Z,95840.84
2023-04-24T18:19:38.541Z,95837.59
2023-04-24T18:22:06.990Z,95836.47
2023-04-24T18:24:36.041Z,95827.50
2023-04-24T18:27:05.038Z,95840.84
2023-04-24T18:29:35.353Z,95834.25
2023-04-24T18:32:05.367Z,95836.16
2023-04-24T18:34:34.779Z,95845.13
2023-04-24T18:37:03.217Z,95847.84
2023-04-24T18:39:32.833Z,95854.13
2023-04-24T18:42:01.806Z,95844.59
2023-04-24T18:44:30.813Z,95843.75
2023-04-24T18:47:00.701Z,95839.38
2023-04-24T18:49:29.982Z,95849.44
2023-04-24T18:51:59.869Z,95852.94
2023-04-24T18:54:30.073Z,95863.25
2023-04-24T18:56:59.553Z,95868.41
2023-04-24T18:59:28.069Z,95868.59
2023-04-24T19:01:57.777Z,95883.25
2023-04-24T19:04:28.821Z,95882.16
2023-04-24T19:06:57.259Z,95885.66
2023-04-24T19:09:26.596Z,95882.66
2023-04-24T19:11:55.048Z,95894.03
2023-04-24T19:14:24.217Z,95887.47
2023-04-24T19:16:52.730Z,95889.06
2023-04-24T19:19:24.615Z,95876.81
2023-04-24T19:21:54.984Z,95889.56
2023-04-24T19:24:23.587Z,95890.09
2023-04-24T19:26:52.291Z,95894.13
2023-04-24T19:29:20.639Z,95894.34
2023-04-24T19:31:49.538Z,95901.44
2023-04-24T19:34:18.372Z,95892.41
2023-04-24T19:36:47.629Z,95908.63
2023-04-24T19:39:17.458Z,95917.00
2023-04-24T19:41:46.067Z,95911.47
2023-04-24T19:44:16.044Z,95912.53
2023-04-24T19:46:44.560Z,95900.56
2023-04-24T19:49:15.558Z,95913.09
2023-04-24T19:51:43.932Z,95901.41
2023-04-24T19:54:13.608Z,95908.75
2023-04-24T19:56:43.782Z,95916.31
2023-04-24T19:59:12.167Z,95908.66
2023-04-24T20:01:42.106Z,95899.34
2023-04-24T20:04:11.916Z,95918.66
2023-04-24T20:06:41.531Z,95918.84
2023-04-24T20:09:10.360Z,95920.44
2023-04-24T20:11:38.938Z,95917.16
2023-04-24T20:14:08.698Z,95922.53
2023-04-24T20:16:39.229Z,95923.59
2023-04-24T20:19:08.530Z,95917.84
2023-04-24T20:21:37.567Z,95926.22
2023-04-24T20:24:09.100Z,95918.84
2023-04-24T20:26:37.593Z,95924.03
2023-04-24T20:29:09.165Z,95923.16
2023-04-24T20:31:38.349Z,95912.31
2023-04-24T20:34:07.342Z,95909.28
2023-04-24T20:36:35.719Z,95922.03
2023-04-24T20:39:06.986Z,95922.22
2023-04-24T20:41:35.975Z,95918.97
2023-04-24T20:44:05.106Z,95920.59
2023-04-24T20:46:35.093Z,95922.22
2023-04-24T20:49:05.279Z,95923.84
2023-04-24T20:51:34.163Z,95922.81
2023-04-24T20:54:03.888Z,95921.97
2023-04-24T20:56:32.361Z,95914.41
2023-04-24T20:59:01.642Z,95919.03
2023-04-24T21:01:31.358Z,95921.16
2023-04-24T21:04:01.238Z,95924.44
2023-04-24T21:06:33.291Z,95915.50
2023-04-24T21:09:01.707Z,95912.72
2023-04-24T21:11:30.963Z,95912.97
2023-04-24T21:13:59.419Z,95912.41
2023-04-24T21:16:29.432Z,95910.84
2023-04-24T21:18:58.396Z,95913.03
2023-04-24T21:21:28.177Z,95891.31
2023-04-24T21:23:58.031Z,95897.84
2023-04-24T21:26:26.458Z,95894.56
2023-04-24T21:28:55.924Z,95902.19
2023-04-24T21:31:24.323Z,95890.31
2023-04-24T21:33:54.271Z,95886.44
2023-04-24T21:36:23.127Z,95884.25
2023-04-24T21:38:52.817Z,95894.06
2023-04-24T21:41:22.094Z,95886.19
2023-04-24T21:43:50.923Z,95882.66
2023-04-24T21:46:20.483Z,95876.56
2023-04-24T21:48:48.889Z,95895.03
2023-04-24T21:51:18.479Z,95888.66
2023-04-24T21:53:47.121Z,95882.00
2023-04-24T21:56:17.567Z,95885.25
2023-04-24T21:58:46.922Z,95889.47
2023-04-24T22:01:17.719Z,95896.69
2023-04-24T22:03:46.384Z,95894.50
2023-04-24T22:06:16.269Z,95894.19
2023-04-24T22:08:47.623Z,95890.09
2023-04-24T22:11:26.645Z,95887.94
2023-04-24T22:13:56.566Z,95878.69
2023-04-24T22:16:26.444Z,95880.91
2023-04-24T22:18:56.177Z,95870.63
2023-04-24T22:21:24.654Z,95864.41
2023-04-24T22:23:53.533Z,95874.72
2023-04-24T22:26:23.368Z,95858.38
2023-04-24T22:28:52.178Z,95866.84
2023-04-24T22:31:20.768Z,95858.69
2023-04-24T22:33:50.073Z,95867.38
2023-04-24T22:36:18.776Z,95857.25
2023-04-24T22:38:48.174Z,95860.78
2023-04-24T22:41:17.849Z,95858.06
2023-04-24T22:43:48.023Z,95861.88
2023-04-24T22:46:17.844Z,95859.75
2023-04-24T22:48:48.113Z,95867.63
2023-04-24T22:51:18.252Z,95851.88
2023-04-24T22:53:49.434Z,95861.81
2023-04-24T22:56:19.286Z,95843.31
2023-04-24T22:58:49.060Z,95819.94
2023-04-24T23:01:18.667Z,95844.19
2023-04-24T23:03:47.209Z,95849.34
2023-04-24T23:06:16.217Z,95847.72
2023-04-24T23:08:47.347Z,95847.97
2023-04-24T23:11:16.214Z,95849.53
2023-04-24T23:13:45.181Z,95851.38
2023-04-24T23:16:14.901Z,95850.56
2023-04-24T23:18:44.388Z,95848.81
2023-04-24T23:21:12.791Z,95856.00
2023-04-24T23:23:42.068Z,95849.63
2023-04-24T23:26:10.412Z,95840.16
2023-04-24T23:28:40.915Z,95832.31
2023-04-24T23:31:09.618Z,95836.22
2023-04-24T23:33:39.824Z,95828.19
2023-04-24T23:36:08.456Z,95817.69
2023-04-24T23:38:49.115Z,95813.84
2023-04-24T23:41:18.888Z,95822.59
2023-04-24T23:43:47.571Z,95820.22
2023-04-24T23:46:16.395Z,95810.75
2023-04-24T23:48:46.361Z,95818.38
2023-04-24T23:51:15.245Z,95810.28
2023-04-24T23:53:43.625Z,95811.66
2023-04-24T23:56:12.820Z,95806.94
2023-04-24T23:58:41.267Z,95810.44
